EKSN/CNL METAR and TAF weather

Enter ICAO airport designator
Station Type Date Time Source
EKSN METAR 2021/03/04 13:50 UTC NOAA

EKSN 041350Z 02012KT CAVOK 03/M05 Q1022


Station Type Date Time Source
EKSN Decoded METAR 2021/03/04 13:50 UTC NOAA

Sindal Flyveplads, Denmark (EKSN) 57-30N 010-13E 28M
Mar 04, 2021 - 08:50 AM EST / 2021.03.04 1350 UTC
Wind: from the NNE (020 degrees) at 14 MPH (12 KT):0
Visibility: greater than 7 mile(s):0
Temperature: 37 F (3 C)
Dew Point: 23 F (-5 C)
Relative Humidity: 55%
Pressure (altimeter): 30.18 in. Hg (1022 hPa)
ob: EKSN 041350Z 02012KT CAVOK 03/M05 Q1022
cycle: 14

Station Type Date Time Source
EKSN TAF UTC NOAA

Error!

Example: see airport list